sensor_id;sensor_type;location;lat;lon;timestamp;temperature;humidity
22249;DHT22;67538;52.180;5.646;2023-11-19T00:01:01;13.40;99.90
22249;DHT22;67538;52.180;5.646;2023-11-19T00:03:31;13.40;99.90
22249;DHT22;67538;52.180;5.646;2023-11-19T00:05:59;13.40;99.90
22249;DHT22;67538;52.180;5.646;2023-11-19T00:08:26;13.40;99.90
22249;DHT22;67538;52.180;5.646;2023-11-19T00:10:53;13.50;99.90
22249;DHT22;67538;52.180;5.646;2023-11-19T00:13:21;13.40;99.90
22249;DHT22;67538;52.180;5.646;2023-11-19T00:15:48;13.40;99.90
22249;DHT22;67538;52.180;5.646;2023-11-19T00:18:15;13.40;99.90
22249;DHT22;67538;52.180;5.646;2023-11-19T00:20:42;13.40;99.90
22249;DHT22;67538;52.180;5.646;2023-11-19T00:23:10;13.40;99.90
22249;DHT22;67538;52.180;5.646;2023-11-19T00:25:37;13.40;99.90
22249;DHT22;67538;52.180;5.646;2023-11-19T00:28:05;13.40;99.90
22249;DHT22;67538;52.180;5.646;2023-11-19T00:30:33;13.40;99.90
22249;DHT22;67538;52.180;5.646;2023-11-19T00:33:00;13.30;99.90
22249;DHT22;67538;52.180;5.646;2023-11-19T00:35:26;13.40;99.90
22249;DHT22;67538;52.180;5.646;2023-11-19T00:37:53;13.40;99.90
22249;DHT22;67538;52.180;5.646;2023-11-19T00:40:20;13.40;99.90
22249;DHT22;67538;52.180;5.646;2023-11-19T00:42:49;13.40;99.90
22249;DHT22;67538;52.180;5.646;2023-11-19T00:45:16;13.40;99.90
22249;DHT22;67538;52.180;5.646;2023-11-19T00:47:44;13.30;99.90
22249;DHT22;67538;52.180;5.646;2023-11-19T00:50:11;13.30;99.90
22249;DHT22;67538;52.180;5.646;2023-11-19T00:52:38;13.30;99.90
22249;DHT22;67538;52.180;5.646;2023-11-19T00:55:06;13.30;99.90
22249;DHT22;67538;52.180;5.646;2023-11-19T00:57:33;13.30;99.90
22249;DHT22;67538;52.180;5.646;2023-11-19T01:00:01;13.30;99.90
22249;DHT22;67538;52.180;5.646;2023-11-19T01:02:34;13.30;99.90
22249;DHT22;67538;52.180;5.646;2023-11-19T01:05:03;13.30;99.90
22249;DHT22;67538;52.180;5.646;2023-11-19T01:07:30;13.30;99.90
22249;DHT22;67538;52.180;5.646;2023-11-19T01:09:57;13.30;99.90
22249;DHT22;67538;52.180;5.646;2023-11-19T01:12:24;13.30;99.90
22249;DHT22;67538;52.180;5.646;2023-11-19T01:14:51;13.30;99.90
22249;DHT22;67538;52.180;5.646;2023-11-19T01:17:18;13.30;99.90
22249;DHT22;67538;52.180;5.646;2023-11-19T01:19:45;13.30;99.90
22249;DHT22;67538;52.180;5.646;2023-11-19T01:22:13;13.30;99.90
22249;DHT22;67538;52.180;5.646;2023-11-19T01:24:40;13.20;99.90
22249;DHT22;67538;52.180;5.646;2023-11-19T01:27:07;13.20;99.90
22249;DHT22;67538;52.180;5.646;2023-11-19T01:29:34;13.30;99.90
22249;DHT22;67538;52.180;5.646;2023-11-19T01:32:04;13.30;99.90
22249;DHT22;67538;52.180;5.646;2023-11-19T01:34:31;13.30;99.90
22249;DHT22;67538;52.180;5.646;2023-11-19T01:36:58;13.30;99.90
22249;DHT22;67538;52.180;5.646;2023-11-19T01:39:26;13.30;99.90
22249;DHT22;67538;52.180;5.646;2023-11-19T01:41:53;13.30;99.90
22249;DHT22;67538;52.180;5.646;2023-11-19T01:44:21;13.30;99.90
22249;DHT22;67538;52.180;5.646;2023-11-19T01:46:48;13.30;99.90
22249;DHT22;67538;52.180;5.646;2023-11-19T01:49:16;13.30;99.90
22249;DHT22;67538;52.180;5.646;2023-11-19T01:51:44;13.30;99.90
22249;DHT22;67538;52.180;5.646;2023-11-19T01:54:12;13.30;99.90
22249;DHT22;67538;52.180;5.646;2023-11-19T01:56:42;13.30;99.90
22249;DHT22;67538;52.180;5.646;2023-11-19T01:59:11;13.30;99.90
22249;DHT22;67538;52.180;5.646;2023-11-19T02:01:40;13.30;99.90
22249;DHT22;67538;52.180;5.646;2023-11-19T02:04:08;13.30;99.90
22249;DHT22;67538;52.180;5.646;2023-11-19T02:06:38;13.30;99.90
22249;DHT22;67538;52.180;5.646;2023-11-19T02:09:07;13.30;99.90
22249;DHT22;67538;52.180;5.646;2023-11-19T02:11:35;13.30;99.90
22249;DHT22;67538;52.180;5.646;2023-11-19T02:14:04;13.30;99.90
22249;DHT22;67538;52.180;5.646;2023-11-19T02:16:31;13.30;99.90
22249;DHT22;67538;52.180;5.646;2023-11-19T02:18:58;13.30;99.90
22249;DHT22;67538;52.180;5.646;2023-11-19T02:21:25;13.20;99.90
22249;DHT22;67538;52.180;5.646;2023-11-19T02:23:52;13.20;99.90
22249;DHT22;67538;52.180;5.646;2023-11-19T02:26:25;13.20;99.90
22249;DHT22;67538;52.180;5.646;2023-11-19T02:28:57;13.20;99.90
22249;DHT22;67538;52.180;5.646;2023-11-19T02:31:24;13.10;99.90
22249;DHT22;67538;52.180;5.646;2023-11-19T02:33:53;13.20;99.90
22249;DHT22;67538;52.180;5.646;2023-11-19T02:36:20;13.10;99.90
22249;DHT22;67538;52.180;5.646;2023-11-19T02:38:47;13.00;99.90
22249;DHT22;67538;52.180;5.646;2023-11-19T02:41:14;13.00;99.90
22249;DHT22;67538;52.180;5.646;2023-11-19T02:43:41;13.00;99.90
22249;DHT22;67538;52.180;5.646;2023-11-19T02:46:10;13.00;99.90
22249;DHT22;67538;52.180;5.646;2023-11-19T02:48:37;12.90;99.90
22249;DHT22;67538;52.180;5.646;2023-11-19T02:51:05;12.90;99.90
22249;DHT22;67538;52.180;5.646;2023-11-19T02:53:37;12.90;99.90
22249;DHT22;67538;52.180;5.646;2023-11-19T02:56:05;12.90;99.90
22249;DHT22;67538;52.180;5.646;2023-11-19T02:58:42;12.90;99.90
22249;DHT22;67538;52.180;5.646;2023-11-19T03:01:11;12.90;99.90
22249;DHT22;67538;52.180;5.646;2023-11-19T03:03:48;12.80;99.90
22249;DHT22;67538;52.180;5.646;2023-11-19T03:06:20;12.80;99.90
22249;DHT22;67538;52.180;5.646;2023-11-19T03:08:48;12.80;99.90
22249;DHT22;67538;52.180;5.646;2023-11-19T03:11:15;12.70;99.90
22249;DHT22;67538;52.180;5.646;2023-11-19T03:13:42;12.70;99.90
22249;DHT22;67538;52.180;5.646;2023-11-19T03:16:11;12.60;99.90
22249;DHT22;67538;52.180;5.646;2023-11-19T03:18:38;12.60;99.90
22249;DHT22;67538;52.180;5.646;2023-11-19T03:21:05;12.60;99.90
22249;DHT22;67538;52.180;5.646;2023-11-19T03:23:33;12.60;99.90
22249;DHT22;67538;52.180;5.646;2023-11-19T03:26:00;12.50;99.90
22249;DHT22;67538;52.180;5.646;2023-11-19T03:28:29;12.50;99.90
22249;DHT22;67538;52.180;5.646;2023-11-19T03:30:56;12.40;99.90
22249;DHT22;67538;52.180;5.646;2023-11-19T03:33:24;12.40;99.90
22249;DHT22;67538;52.180;5.646;2023-11-19T03:35:53;12.30;99.90
22249;DHT22;67538;52.180;5.646;2023-11-19T03:38:22;12.30;99.90
22249;DHT22;67538;52.180;5.646;2023-11-19T03:40:49;12.20;99.90
22249;DHT22;67538;52.180;5.646;2023-11-19T03:43:16;12.20;99.90
22249;DHT22;67538;52.180;5.646;2023-11-19T03:45:44;12.10;99.90
22249;DHT22;67538;52.180;5.646;2023-11-19T03:48:12;12.10;99.90
22249;DHT22;67538;52.180;5.646;2023-11-19T03:50:43;12.10;99.90
22249;DHT22;67538;52.180;5.646;2023-11-19T03:53:11;12.00;99.90
22249;DHT22;67538;52.180;5.646;2023-11-19T03:55:39;12.00;99.90
22249;DHT22;67538;52.180;5.646;2023-11-19T03:58:06;11.90;99.90
22249;DHT22;67538;52.180;5.646;2023-11-19T04:00:33;11.90;99.90
22249;DHT22;67538;52.180;5.646;2023-11-19T04:03:00;11.90;99.90
22249;DHT22;67538;52.180;5.646;2023-11-19T04:05:27;11.80;99.90
22249;DHT22;67538;52.180;5.646;2023-11-19T04:07:55;11.80;99.90
22249;DHT22;67538;52.180;5.646;2023-11-19T04:10:22;11.70;99.90
22249;DHT22;67538;52.180;5.646;2023-11-19T04:12:49;11.70;99.90
22249;DHT22;67538;52.180;5.646;2023-11-19T04:15:17;11.70;99.90
22249;DHT22;67538;52.180;5.646;2023-11-19T04:17:44;11.70;99.90
22249;DHT22;67538;52.180;5.646;2023-11-19T04:20:11;11.70;99.90
22249;DHT22;67538;52.180;5.646;2023-11-19T04:22:39;11.70;99.90
22249;DHT22;67538;52.180;5.646;2023-11-19T04:25:08;11.70;99.90
22249;DHT22;67538;52.180;5.646;2023-11-19T04:27:36;11.70;99.90
22249;DHT22;67538;52.180;5.646;2023-11-19T04:30:04;11.70;99.90
22249;DHT22;67538;52.180;5.646;2023-11-19T04:32:36;11.70;99.90
22249;DHT22;67538;52.180;5.646;2023-11-19T04:35:03;11.70;99.90
22249;DHT22;67538;52.180;5.646;2023-11-19T04:37:32;11.70;99.90
22249;DHT22;67538;52.180;5.646;2023-11-19T04:40:00;11.70;99.90
22249;DHT22;67538;52.180;5.646;2023-11-19T04:42:28;11.70;99.90
22249;DHT22;67538;52.180;5.646;2023-11-19T04:44:56;11.70;99.90
22249;DHT22;67538;52.180;5.646;2023-11-19T04:47:23;11.60;99.90
22249;DHT22;67538;52.180;5.646;2023-11-19T04:49:50;11.60;99.90
22249;DHT22;67538;52.180;5.646;2023-11-19T04:52:17;11.60;99.90
22249;DHT22;67538;52.180;5.646;2023-11-19T04:54:44;11.50;99.90
22249;DHT22;67538;52.180;5.646;2023-11-19T04:57:11;11.50;99.90
22249;DHT22;67538;52.180;5.646;2023-11-19T04:59:39;11.60;99.90
22249;DHT22;67538;52.180;5.646;2023-11-19T05:02:06;11.50;99.90
22249;DHT22;67538;52.180;5.646;2023-11-19T05:04:35;11.50;99.90
22249;DHT22;67538;52.180;5.646;2023-11-19T05:07:03;11.50;99.90
22249;DHT22;67538;52.180;5.646;2023-11-19T05:09:31;11.50;99.90
22249;DHT22;67538;52.180;5.646;2023-11-19T05:11:58;11.50;99.90
22249;DHT22;67538;52.180;5.646;2023-11-19T05:14:25;11.50;99.90
22249;DHT22;67538;52.180;5.646;2023-11-19T05:16:53;11.50;99.90
22249;DHT22;67538;52.180;5.646;2023-11-19T05:19:20;11.50;99.90
22249;DHT22;67538;52.180;5.646;2023-11-19T05:21:47;11.40;99.90
22249;DHT22;67538;52.180;5.646;2023-11-19T05:24:17;11.50;99.90
22249;DHT22;67538;52.180;5.646;2023-11-19T05:26:45;11.50;99.90
22249;DHT22;67538;52.180;5.646;2023-11-19T05:29:12;11.50;99.90
22249;DHT22;67538;52.180;5.646;2023-11-19T05:31:40;11.50;99.90
22249;DHT22;67538;52.180;5.646;2023-11-19T05:34:08;11.50;99.90
22249;DHT22;67538;52.180;5.646;2023-11-19T05:36:35;11.50;99.90
22249;DHT22;67538;52.180;5.646;2023-11-19T05:39:02;11.40;99.90
22249;DHT22;67538;52.180;5.646;2023-11-19T05:41:30;11.40;99.90
22249;DHT22;67538;52.180;5.646;2023-11-19T05:43:57;11.40;99.90
22249;DHT22;67538;52.180;5.646;2023-11-19T05:46:24;11.40;99.90
22249;DHT22;67538;52.180;5.646;2023-11-19T05:48:52;11.40;99.90
22249;DHT22;67538;52.180;5.646;2023-11-19T05:51:21;11.40;99.90
22249;DHT22;67538;52.180;5.646;2023-11-19T05:53:49;11.40;99.90
22249;DHT22;67538;52.180;5.646;2023-11-19T05:56:16;11.30;99.90
22249;DHT22;67538;52.180;5.646;2023-11-19T05:58:47;11.30;99.90
22249;DHT22;67538;52.180;5.646;2023-11-19T06:01:15;11.30;99.90
22249;DHT22;67538;52.180;5.646;2023-11-19T06:03:42;11.20;99.90
22249;DHT22;67538;52.180;5.646;2023-11-19T06:06:13;11.20;99.90
22249;DHT22;67538;52.180;5.646;2023-11-19T06:08:41;11.20;99.90
22249;DHT22;67538;52.180;5.646;2023-11-19T06:11:10;11.20;99.90
22249;DHT22;67538;52.180;5.646;2023-11-19T06:13:40;11.20;99.90
22249;DHT22;67538;52.180;5.646;2023-11-19T06:16:08;11.20;99.90
22249;DHT22;67538;52.180;5.646;2023-11-19T06:18:36;11.20;99.90
22249;DHT22;67538;52.180;5.646;2023-11-19T06:21:03;11.20;99.90
22249;DHT22;67538;52.180;5.646;2023-11-19T06:23:30;11.30;99.90
22249;DHT22;67538;52.180;5.646;2023-11-19T06:25:59;11.30;99.90
22249;DHT22;67538;52.180;5.646;2023-11-19T06:28:26;11.30;99.90
22249;DHT22;67538;52.180;5.646;2023-11-19T06:30:53;11.30;99.90
22249;DHT22;67538;52.180;5.646;2023-11-19T06:33:20;11.20;99.90
22249;DHT22;67538;52.180;5.646;2023-11-19T06:35:47;11.20;99.90
22249;DHT22;67538;52.180;5.646;2023-11-19T06:38:15;11.30;99.90
22249;DHT22;67538;52.180;5.646;2023-11-19T06:40:42;11.20;99.90
22249;DHT22;67538;52.180;5.646;2023-11-19T06:43:10;11.20;99.90
22249;DHT22;67538;52.180;5.646;2023-11-19T06:45:37;11.20;99.90
22249;DHT22;67538;52.180;5.646;2023-11-19T06:48:05;11.20;99.90
22249;DHT22;67538;52.180;5.646;2023-11-19T06:50:33;11.10;99.90
22249;DHT22;67538;52.180;5.646;2023-11-19T06:53:00;11.10;99.90
22249;DHT22;67538;52.180;5.646;2023-11-19T06:55:27;11.10;99.90
22249;DHT22;67538;52.180;5.646;2023-11-19T06:57:54;11.00;99.90
22249;DHT22;67538;52.180;5.646;2023-11-19T07:00:22;11.00;99.90
22249;DHT22;67538;52.180;5.646;2023-11-19T07:02:49;11.00;99.90
22249;DHT22;67538;52.180;5.646;2023-11-19T07:05:16;11.00;99.90
22249;DHT22;67538;52.180;5.646;2023-11-19T07:07:43;11.00;99.90
22249;DHT22;67538;52.180;5.646;2023-11-19T07:10:12;11.00;99.90
22249;DHT22;67538;52.180;5.646;2023-11-19T07:12:39;11.00;99.90
22249;DHT22;67538;52.180;5.646;2023-11-19T07:15:08;11.00;99.90
22249;DHT22;67538;52.180;5.646;2023-11-19T07:17:37;11.10;99.90
22249;DHT22;67538;52.180;5.646;2023-11-19T07:20:06;11.10;99.90
22249;DHT22;67538;52.180;5.646;2023-11-19T07:22:33;11.10;99.90
22249;DHT22;67538;52.180;5.646;2023-11-19T07:25:00;11.20;99.90
22249;DHT22;67538;52.180;5.646;2023-11-19T07:27:27;11.20;99.90
22249;DHT22;67538;52.180;5.646;2023-11-19T07:29:54;11.20;99.90
22249;DHT22;67538;52.180;5.646;2023-11-19T07:32:22;11.20;99.90
22249;DHT22;67538;52.180;5.646;2023-11-19T07:34:50;11.20;99.90
22249;DHT22;67538;52.180;5.646;2023-11-19T07:37:17;11.30;99.90
22249;DHT22;67538;52.180;5.646;2023-11-19T07:39:44;11.30;99.90
22249;DHT22;67538;52.180;5.646;2023-11-19T07:42:11;11.30;99.90
22249;DHT22;67538;52.180;5.646;2023-11-19T07:44:38;11.30;99.90
22249;DHT22;67538;52.180;5.646;2023-11-19T07:47:05;11.40;99.90
22249;DHT22;67538;52.180;5.646;2023-11-19T07:49:32;11.40;99.90
22249;DHT22;67538;52.180;5.646;2023-11-19T07:52:00;11.40;99.90
22249;DHT22;67538;52.180;5.646;2023-11-19T07:54:29;11.50;99.90
22249;DHT22;67538;52.180;5.646;2023-11-19T07:56:56;11.50;99.90
22249;DHT22;67538;52.180;5.646;2023-11-19T07:59:23;11.60;99.90
22249;DHT22;67538;52.180;5.646;2023-11-19T08:01:50;11.70;99.90
22249;DHT22;67538;52.180;5.646;2023-11-19T08:04:17;11.80;99.90
22249;DHT22;67538;52.180;5.646;2023-11-19T08:06:43;11.80;99.90
22249;DHT22;67538;52.180;5.646;2023-11-19T08:09:12;11.80;99.90
22249;DHT22;67538;52.180;5.646;2023-11-19T08:11:40;11.90;99.90
22249;DHT22;67538;52.180;5.646;2023-11-19T08:14:08;11.90;99.90
22249;DHT22;67538;52.180;5.646;2023-11-19T08:16:35;11.90;99.90
22249;DHT22;67538;52.180;5.646;2023-11-19T08:19:03;11.80;99.90
22249;DHT22;67538;52.180;5.646;2023-11-19T08:21:30;11.90;99.90
22249;DHT22;67538;52.180;5.646;2023-11-19T08:23:57;11.90;99.90
22249;DHT22;67538;52.180;5.646;2023-11-19T08:26:25;11.90;99.90
22249;DHT22;67538;52.180;5.646;2023-11-19T08:28:52;11.90;99.90
22249;DHT22;67538;52.180;5.646;2023-11-19T08:31:19;12.00;99.90
22249;DHT22;67538;52.180;5.646;2023-11-19T08:33:46;12.10;99.90
22249;DHT22;67538;52.180;5.646;2023-11-19T08:36:16;12.20;99.90
22249;DHT22;67538;52.180;5.646;2023-11-19T08:38:44;12.20;99.90
22249;DHT22;67538;52.180;5.646;2023-11-19T08:41:10;12.20;99.90
22249;DHT22;67538;52.180;5.646;2023-11-19T08:43:39;12.10;99.90
22249;DHT22;67538;52.180;5.646;2023-11-19T08:46:09;12.50;99.90
22249;DHT22;67538;52.180;5.646;2023-11-19T08:48:37;12.50;99.90
22249;DHT22;67538;52.180;5.646;2023-11-19T08:51:05;12.40;99.90
22249;DHT22;67538;52.180;5.646;2023-11-19T08:53:31;12.60;99.90
22249;DHT22;67538;52.180;5.646;2023-11-19T08:55:58;13.20;99.90
22249;DHT22;67538;52.180;5.646;2023-11-19T08:58:26;13.50;99.90
22249;DHT22;67538;52.180;5.646;2023-11-19T09:00:54;13.50;99.90
22249;DHT22;67538;52.180;5.646;2023-11-19T09:03:21;13.60;99.90
22249;DHT22;67538;52.180;5.646;2023-11-19T09:05:48;13.50;99.90
22249;DHT22;67538;52.180;5.646;2023-11-19T09:08:15;13.10;99.90
22249;DHT22;67538;52.180;5.646;2023-11-19T09:10:42;13.10;99.90
22249;DHT22;67538;52.180;5.646;2023-11-19T09:13:09;12.80;99.90
22249;DHT22;67538;52.180;5.646;2023-11-19T09:15:36;12.60;99.90
22249;DHT22;67538;52.180;5.646;2023-11-19T09:18:05;12.40;99.90
22249;DHT22;67538;52.180;5.646;2023-11-19T09:20:32;12.40;99.90
22249;DHT22;67538;52.180;5.646;2023-11-19T09:23:04;12.80;99.90
22249;DHT22;67538;52.180;5.646;2023-11-19T09:25:31;13.20;99.90
22249;DHT22;67538;52.180;5.646;2023-11-19T09:27:58;13.40;99.90
22249;DHT22;67538;52.180;5.646;2023-11-19T09:30:25;13.20;99.90
22249;DHT22;67538;52.180;5.646;2023-11-19T09:32:52;13.10;99.90
22249;DHT22;67538;52.180;5.646;2023-11-19T09:35:20;13.50;99.90
22249;DHT22;67538;52.180;5.646;2023-11-19T09:37:47;13.60;99.90
22249;DHT22;67538;52.180;5.646;2023-11-19T09:40:14;13.10;99.90
22249;DHT22;67538;52.180;5.646;2023-11-19T09:42:44;12.90;99.90
22249;DHT22;67538;52.180;5.646;2023-11-19T09:45:14;12.60;99.90
22249;DHT22;67538;52.180;5.646;2023-11-19T09:47:44;12.50;99.90
22249;DHT22;67538;52.180;5.646;2023-11-19T09:50:15;12.50;99.90
22249;DHT22;67538;52.180;5.646;2023-11-19T09:52:44;12.60;99.90
22249;DHT22;67538;52.180;5.646;2023-11-19T09:55:11;12.60;99.90
22249;DHT22;67538;52.180;5.646;2023-11-19T09:57:39;12.50;99.90
22249;DHT22;67538;52.180;5.646;2023-11-19T10:00:08;12.80;99.90
22249;DHT22;67538;52.180;5.646;2023-11-19T10:02:37;13.10;99.90
22249;DHT22;67538;52.180;5.646;2023-11-19T10:05:06;13.40;99.90
22249;DHT22;67538;52.180;5.646;2023-11-19T10:07:33;13.40;99.90
22249;DHT22;67538;52.180;5.646;2023-11-19T10:10:03;13.10;99.90
22249;DHT22;67538;52.180;5.646;2023-11-19T10:12:30;12.90;99.90
22249;DHT22;67538;52.180;5.646;2023-11-19T10:14:58;12.80;99.90
22249;DHT22;67538;52.180;5.646;2023-11-19T10:17:27;12.70;99.90
22249;DHT22;67538;52.180;5.646;2023-11-19T10:19:55;12.70;99.90
22249;DHT22;67538;52.180;5.646;2023-11-19T10:22:23;12.70;99.90
22249;DHT22;67538;52.180;5.646;2023-11-19T10:24:50;12.70;99.90
22249;DHT22;67538;52.180;5.646;2023-11-19T10:27:19;12.70;99.90
22249;DHT22;67538;52.180;5.646;2023-11-19T10:29:46;12.70;99.90
22249;DHT22;67538;52.180;5.646;2023-11-19T10:32:13;12.80;99.90
22249;DHT22;67538;52.180;5.646;2023-11-19T10:34:40;12.80;99.90
22249;DHT22;67538;52.180;5.646;2023-11-19T10:37:08;13.00;99.90
22249;DHT22;67538;52.180;5.646;2023-11-19T10:39:51;13.20;99.90
22249;DHT22;67538;52.180;5.646;2023-11-19T10:42:21;13.20;99.90
22249;DHT22;67538;52.180;5.646;2023-11-19T10:44:48;13.10;99.90
22249;DHT22;67538;52.180;5.646;2023-11-19T10:47:19;13.10;99.90
22249;DHT22;67538;52.180;5.646;2023-11-19T10:49:46;13.00;99.90
22249;DHT22;67538;52.180;5.646;2023-11-19T10:52:17;13.00;99.90
22249;DHT22;67538;52.180;5.646;2023-11-19T10:54:50;13.10;99.90
22249;DHT22;67538;52.180;5.646;2023-11-19T10:57:21;13.20;99.90
22249;DHT22;67538;52.180;5.646;2023-11-19T10:59:49;13.20;99.90
22249;DHT22;67538;52.180;5.646;2023-11-19T11:02:22;13.20;99.90
22249;DHT22;67538;52.180;5.646;2023-11-19T11:04:51;13.20;99.90
22249;DHT22;67538;52.180;5.646;2023-11-19T11:07:21;13.30;99.90
22249;DHT22;67538;52.180;5.646;2023-11-19T11:09:51;13.20;99.90
22249;DHT22;67538;52.180;5.646;2023-11-19T11:12:23;13.50;99.90
22249;DHT22;67538;52.180;5.646;2023-11-19T11:14:51;13.90;99.90
22249;DHT22;67538;52.180;5.646;2023-11-19T11:17:21;14.20;99.90
22249;DHT22;67538;52.180;5.646;2023-11-19T11:19:51;14.30;99.90
22249;DHT22;67538;52.180;5.646;2023-11-19T11:22:18;14.20;99.90
22249;DHT22;67538;52.180;5.646;2023-11-19T11:25:00;14.00;99.90
22249;DHT22;67538;52.180;5.646;2023-11-19T11:27:47;14.00;99.90
22249;DHT22;67538;52.180;5.646;2023-11-19T11:30:26;14.10;99.90
22249;DHT22;67538;52.180;5.646;2023-11-19T11:33:06;14.00;99.90
22249;DHT22;67538;52.180;5.646;2023-11-19T11:35:48;13.90;99.90
22249;DHT22;67538;52.180;5.646;2023-11-19T11:38:21;13.90;99.90
22249;DHT22;67538;52.180;5.646;2023-11-19T11:41:14;14.10;99.90
22249;DHT22;67538;52.180;5.646;2023-11-19T11:43:47;14.00;99.90
22249;DHT22;67538;52.180;5.646;2023-11-19T11:49:28;13.70;99.90
22249;DHT22;67538;52.180;5.646;2023-11-19T11:52:03;13.80;99.90
22249;DHT22;67538;52.180;5.646;2023-11-19T11:54:30;13.80;99.90
22249;DHT22;67538;52.180;5.646;2023-11-19T11:57:15;13.70;99.90
22249;DHT22;67538;52.180;5.646;2023-11-19T11:59:48;13.60;99.90
22249;DHT22;67538;52.180;5.646;2023-11-19T12:02:17;13.60;99.90
22249;DHT22;67538;52.180;5.646;2023-11-19T12:04:47;13.70;99.90
22249;DHT22;67538;52.180;5.646;2023-11-19T12:07:17;13.70;99.90
22249;DHT22;67538;52.180;5.646;2023-11-19T12:09:48;13.60;99.90
22249;DHT22;67538;52.180;5.646;2023-11-19T12:12:19;13.60;99.90
22249;DHT22;67538;52.180;5.646;2023-11-19T12:15:06;13.50;99.90
22249;DHT22;67538;52.180;5.646;2023-11-19T12:17:47;13.40;99.90
22249;DHT22;67538;52.180;5.646;2023-11-19T12:20:18;13.50;99.90
22249;DHT22;67538;52.180;5.646;2023-11-19T12:22:46;13.50;99.90
22249;DHT22;67538;52.180;5.646;2023-11-19T12:25:15;13.40;99.90
22249;DHT22;67538;52.180;5.646;2023-11-19T12:27:44;13.30;99.90
22249;DHT22;67538;52.180;5.646;2023-11-19T12:30:14;13.20;99.90
22249;DHT22;67538;52.180;5.646;2023-11-19T12:32:45;13.20;99.90
22249;DHT22;67538;52.180;5.646;2023-11-19T12:35:12;13.70;99.90
22249;DHT22;67538;52.180;5.646;2023-11-19T12:37:40;14.10;99.90
22249;DHT22;67538;52.180;5.646;2023-11-19T12:40:15;13.90;99.90
22249;DHT22;67538;52.180;5.646;2023-11-19T12:42:43;13.70;99.90
22249;DHT22;67538;52.180;5.646;2023-11-19T12:45:12;13.50;99.90
22249;DHT22;67538;52.180;5.646;2023-11-19T12:47:39;13.40;99.90
22249;DHT22;67538;52.180;5.646;2023-11-19T12:50:07;13.30;99.90
22249;DHT22;67538;52.180;5.646;2023-11-19T12:52:35;13.20;99.90
22249;DHT22;67538;52.180;5.646;2023-11-19T12:55:02;13.20;99.90
22249;DHT22;67538;52.180;5.646;2023-11-19T12:57:37;13.10;99.90
22249;DHT22;67538;52.180;5.646;2023-11-19T13:00:05;13.10;99.90
22249;DHT22;67538;52.180;5.646;2023-11-19T13:02:46;13.10;99.90
22249;DHT22;67538;52.180;5.646;2023-11-19T13:05:25;13.00;99.90
22249;DHT22;67538;52.180;5.646;2023-11-19T13:08:03;13.00;99.90
22249;DHT22;67538;52.180;5.646;2023-11-19T13:10:31;13.10;99.90
22249;DHT22;67538;52.180;5.646;2023-11-19T13:13:02;13.10;99.90
22249;DHT22;67538;52.180;5.646;2023-11-19T13:15:30;13.10;99.90
22249;DHT22;67538;52.180;5.646;2023-11-19T13:17:59;13.10;99.90
22249;DHT22;67538;52.180;5.646;2023-11-19T13:20:26;13.10;99.90
22249;DHT22;67538;52.180;5.646;2023-11-19T13:22:57;13.10;99.90
22249;DHT22;67538;52.180;5.646;2023-11-19T13:25:24;13.00;99.90
22249;DHT22;67538;52.180;5.646;2023-11-19T13:27:51;13.00;99.90
22249;DHT22;67538;52.180;5.646;2023-11-19T13:30:18;12.90;99.90
22249;DHT22;67538;52.180;5.646;2023-11-19T13:32:45;12.90;99.90
22249;DHT22;67538;52.180;5.646;2023-11-19T13:35:14;12.80;99.90
22249;DHT22;67538;52.180;5.646;2023-11-19T13:37:41;12.80;99.90
22249;DHT22;67538;52.180;5.646;2023-11-19T13:40:09;12.80;99.90
22249;DHT22;67538;52.180;5.646;2023-11-19T13:42:38;12.80;99.90
22249;DHT22;67538;52.180;5.646;2023-11-19T13:45:08;12.80;99.90
22249;DHT22;67538;52.180;5.646;2023-11-19T13:47:37;12.70;99.90
22249;DHT22;67538;52.180;5.646;2023-11-19T13:50:07;12.70;99.90
22249;DHT22;67538;52.180;5.646;2023-11-19T13:52:36;12.70;99.90
22249;DHT22;67538;52.180;5.646;2023-11-19T13:55:06;12.70;99.90
22249;DHT22;67538;52.180;5.646;2023-11-19T13:57:33;12.80;99.90
22249;DHT22;67538;52.180;5.646;2023-11-19T14:00:01;12.80;99.90
22249;DHT22;67538;52.180;5.646;2023-11-19T14:02:31;12.80;99.90
22249;DHT22;67538;52.180;5.646;2023-11-19T14:04:58;12.80;99.90
22249;DHT22;67538;52.180;5.646;2023-11-19T14:07:25;12.80;99.90
22249;DHT22;67538;52.180;5.646;2023-11-19T14:09:54;12.80;99.90
22249;DHT22;67538;52.180;5.646;2023-11-19T14:12:21;12.80;99.90
22249;DHT22;67538;52.180;5.646;2023-11-19T14:14:48;12.80;99.90
22249;DHT22;67538;52.180;5.646;2023-11-19T14:17:15;12.80;99.90
22249;DHT22;67538;52.180;5.646;2023-11-19T14:19:42;12.80;99.90
22249;DHT22;67538;52.180;5.646;2023-11-19T14:22:09;12.80;99.90
22249;DHT22;67538;52.180;5.646;2023-11-19T14:24:37;12.80;99.90
22249;DHT22;67538;52.180;5.646;2023-11-19T14:27:06;12.80;99.90
22249;DHT22;67538;52.180;5.646;2023-11-19T14:29:33;12.80;99.90
22249;DHT22;67538;52.180;5.646;2023-11-19T14:32:01;12.70;99.90
22249;DHT22;67538;52.180;5.646;2023-11-19T14:34:28;12.70;99.90
22249;DHT22;67538;52.180;5.646;2023-11-19T14:36:55;12.60;99.90
22249;DHT22;67538;52.180;5.646;2023-11-19T14:39:22;12.60;99.90
22249;DHT22;67538;52.180;5.646;2023-11-19T14:41:49;12.50;99.90
22249;DHT22;67538;52.180;5.646;2023-11-19T14:44:19;12.50;99.90
22249;DHT22;67538;52.180;5.646;2023-11-19T14:46:46;12.50;99.90
22249;DHT22;67538;52.180;5.646;2023-11-19T14:49:14;12.40;99.90
22249;DHT22;67538;52.180;5.646;2023-11-19T14:51:41;12.40;99.90
22249;DHT22;67538;52.180;5.646;2023-11-19T14:54:08;12.30;99.90
22249;DHT22;67538;52.180;5.646;2023-11-19T14:56:35;12.30;99.90
22249;DHT22;67538;52.180;5.646;2023-11-19T14:59:04;12.30;99.90
22249;DHT22;67538;52.180;5.646;2023-11-19T15:01:32;12.30;99.90
22249;DHT22;67538;52.180;5.646;2023-11-19T15:03:59;12.30;99.90
22249;DHT22;67538;52.180;5.646;2023-11-19T15:06:26;12.30;99.90
22249;DHT22;67538;52.180;5.646;2023-11-19T15:08:53;12.30;99.90
22249;DHT22;67538;52.180;5.646;2023-11-19T15:11:21;12.30;99.90
22249;DHT22;67538;52.180;5.646;2023-11-19T15:13:49;12.40;99.90
22249;DHT22;67538;52.180;5.646;2023-11-19T15:16:16;12.40;99.90
22249;DHT22;67538;52.180;5.646;2023-11-19T15:18:51;12.40;99.90
22249;DHT22;67538;52.180;5.646;2023-11-19T15:21:18;12.40;99.90
22249;DHT22;67538;52.180;5.646;2023-11-19T15:23:45;12.40;99.90
22249;DHT22;67538;52.180;5.646;2023-11-19T15:26:12;12.40;99.90
22249;DHT22;67538;52.180;5.646;2023-11-19T15:28:39;12.50;99.90
22249;DHT22;67538;52.180;5.646;2023-11-19T15:31:06;12.50;99.90
22249;DHT22;67538;52.180;5.646;2023-11-19T15:33:33;12.50;99.90
22249;DHT22;67538;52.180;5.646;2023-11-19T15:36:02;12.50;99.90
22249;DHT22;67538;52.180;5.646;2023-11-19T15:38:33;12.50;99.90
22249;DHT22;67538;52.180;5.646;2023-11-19T15:41:00;12.50;99.90